首页
METAR-TAF:

METAR-TAF

机场 :

海參崴國際機場

海參崴, 俄罗斯

纬度: 43-07N, 经度: 131-56E, 海拔: 184米

当前天气观测

该预报发布于29分钟前的02:00 UTC
风速6节,风向西北
温度 27°C
湿度 45%
气压 1010 hPa
能见度10公里或以上

METAR: UHWW 190200Z 31003MPS 9999 NSC 27/14 Q1010 R25L/0///70 NOSIG RMK QFE756

时间: 12:29 (02:29 UTC)

预报

该预报发布于3小时和29分钟前的23:00 UTC
预报有效从19日的 00点(UTC)到 19日的 24点(UTC)
风速2节,风向多变
能見度: 5000
多云层高于1100英尺
轻雾
短暂存在
从 19日的 00点(UTC)到 19日的 02点(UTC)
散云层高于400英尺
从 19日的 0200点(UTC)
风速6节,风向西南
能见度10公里或以上
散云层高于3000英尺
短暂存在
从 19日的 02点(UTC)到 19日的 10点(UTC)
能見度: 5000
多云层高于2000英尺, 积雨云.
小阵雨

TAF: UHWW 182300Z 1900/1924 VRB01MPS 5000 BR BKN011 TEMPO 1900/1902 SCT004 FM190200 22003MPS 9999 SCT030 TEMPO 1902/1910 5000 -SHRA BKN020CB

超过4000个机场的气象观测和天气预报(METAR&TAF报告)。

可查询的气象台以黄色和红色小点在地图上表示。

将鼠标移到小点上方,可查看气象台名称。

然后点击查看天气观测和预报。

如需切换地图:点击带黑十字的绿色按钮放大地图;点击带横线的绿色按钮缩小地图;或者点击绿色箭头查看邻近地区的地图。


METAR-TAF: